Time;durP1;ratioP1;P1;durP2;ratioP2;P2;SDS_P1;SDS_P2;PMS_P1;PMS_P2;Temp;Humidity;BMP_temperature;BMP_pressure;BME280_temperature;BME280_humidity;BME280_pressure;Samples;Min_cycle;Max_cycle;Signal;HPM_P1;HPM_P2
2022/08/06 00:00:14;;;;;;;934.38;849.88;;;20.80;99.90;;;;;;5090001;28;20272;-83
2022/08/06 00:02:41;;;;;;;928.97;844.53;;;20.80;99.90;;;;;;5089436;28;20229;-83
2022/08/06 00:05:09;;;;;;;921.08;837.05;;;20.80;99.90;;;;;;5089710;28;20289;-83
2022/08/06 00:07:37;;;;;;;928.60;844.42;;;20.80;99.90;;;;;;5091150;28;20209;-84
2022/08/06 00:10:05;;;;;;;923.75;840.25;;;20.70;99.90;;;;;;5089049;28;20190;-83
2022/08/06 00:12:33;;;;;;;923.72;840.50;;;20.70;99.90;;;;;;5090782;28;20636;-82
2022/08/06 00:15:00;;;;;;;921.58;838.40;;;20.70;99.90;;;;;;5085967;28;20208;-83
2022/08/06 00:17:27;;;;;;;921.47;838.20;;;20.70;99.90;;;;;;5089596;28;20217;-82
2022/08/06 00:19:54;;;;;;;918.50;834.92;;;20.70;99.90;;;;;;5090264;28;20209;-83
2022/08/06 00:22:20;;;;;;;919.50;835.65;;;20.60;99.90;;;;;;5089756;28;20205;-82
2022/08/06 00:24:48;;;;;;;925.38;840.97;;;20.60;99.90;;;;;;5089262;28;20204;-83
2022/08/06 00:27:15;;;;;;;904.30;820.38;;;20.60;99.90;;;;;;5090350;28;20205;-82
2022/08/06 00:29:42;;;;;;;906.13;821.95;;;20.60;99.90;;;;;;5091383;28;20320;-83
2022/08/06 00:32:09;;;;;;;918.13;833.28;;;20.60;99.90;;;;;;5088934;28;20198;-83
2022/08/06 00:34:35;;;;;;;917.20;832.67;;;20.60;99.90;;;;;;5089204;28;20213;-84
2022/08/06 00:37:02;;;;;;;908.88;824.50;;;20.50;99.90;;;;;;5090102;28;20194;-82
2022/08/06 00:39:29;;;;;;;903.78;819.47;;;20.50;99.90;;;;;;5090501;28;20190;-83
2022/08/06 00:41:57;;;;;;;901.60;817.53;;;20.50;99.90;;;;;;5090138;28;20513;-82
2022/08/06 00:44:23;;;;;;;907.42;822.92;;;20.50;99.90;;;;;;5088819;28;20197;-83
2022/08/06 00:46:50;;;;;;;911.78;827.20;;;20.50;99.90;;;;;;5089639;28;20200;-84
2022/08/06 00:49:17;;;;;;;893.50;809.38;;;20.50;99.90;;;;;;5088529;28;20213;-83
2022/08/06 00:51:44;;;;;;;901.40;817.17;;;20.40;99.90;;;;;;5090143;28;20196;-84
2022/08/06 00:54:10;;;;;;;903.85;819.42;;;20.40;99.90;;;;;;5090910;28;20189;-83
2022/08/06 00:56:37;;;;;;;900.75;816.17;;;20.40;99.90;;;;;;5087299;28;20200;-84
2022/08/06 00:59:05;;;;;;;899.80;815.40;;;20.40;99.90;;;;;;5090650;28;20200;-83
2022/08/06 01:01:32;;;;;;;896.15;811.90;;;20.40;99.90;;;;;;5091830;28;20283;-84
2022/08/06 01:03:59;;;;;;;898.03;813.85;;;20.40;99.90;;;;;;5089601;28;20198;-83
2022/08/06 01:06:26;;;;;;;910.65;825.85;;;20.30;99.90;;;;;;5091377;28;20204;-82
2022/08/06 01:08:53;;;;;;;900.00;815.10;;;20.30;99.90;;;;;;5089541;28;20239;-83
2022/08/06 01:11:19;;;;;;;890.00;805.75;;;20.30;99.90;;;;;;5088462;28;20283;-83
2022/08/06 01:13:46;;;;;;;895.90;811.55;;;20.30;99.90;;;;;;5086353;28;20198;-83
2022/08/06 01:16:22;;;;;;;900.67;815.80;;;20.30;99.90;;;;;;5089075;28;20640;-84
2022/08/06 01:18:59;;;;;;;887.25;803.17;;;20.30;99.90;;;;;;5084957;28;20216;-84
2022/08/06 01:21:49;;;;;;;903.00;818.40;;;20.20;99.90;;;;;;5088064;28;20531;-83
2022/08/06 01:24:39;;;;;;;889.08;804.70;;;20.20;99.90;;;;;;5084826;28;20212;-84
2022/08/06 01:27:37;;;;;;;889.33;805.03;;;20.20;99.90;;;;;;5088546;28;20760;-83
2022/08/06 01:30:07;;;;;;;890.35;806.05;;;20.20;99.90;;;;;;5074821;28;20691;-84
2022/08/06 01:32:38;;;;;;;874.58;790.67;;;20.20;99.90;;;;;;5082531;28;20616;-84
2022/08/06 01:35:09;;;;;;;892.75;808.33;;;20.10;99.90;;;;;;5081705;28;20273;-84
2022/08/06 01:37:42;;;;;;;912.90;827.80;;;20.10;99.90;;;;;;5088339;28;20648;-84
2022/08/06 01:40:14;;;;;;;884.25;799.72;;;20.10;99.90;;;;;;5088987;28;20201;-81
2022/08/06 01:42:44;;;;;;;880.35;796.22;;;20.10;99.90;;;;;;5086349;28;20225;-83
2022/08/06 01:45:15;;;;;;;887.33;802.85;;;20.10;99.90;;;;;;5087322;28;20212;-83
2022/08/06 01:47:44;;;;;;;889.65;805.10;;;20.10;99.90;;;;;;5087831;28;20198;-83
2022/08/06 01:50:13;;;;;;;908.58;823.30;;;20.00;99.90;;;;;;5088590;28;20228;-83
2022/08/06 01:52:43;;;;;;;891.33;806.65;;;20.00;99.90;;;;;;5089689;28;20205;-83
2022/08/06 01:55:13;;;;;;;891.83;807.15;;;20.00;99.90;;;;;;5089298;28;20193;-83
2022/08/06 01:57:47;;;;;;;885.88;801.47;;;20.00;99.90;;;;;;5087415;28;20208;-83
2022/08/06 02:00:15;;;;;;;880.50;796.25;;;20.00;99.90;;;;;;5086839;28;20189;-83
2022/08/06 02:02:44;;;;;;;871.90;787.72;;;19.90;99.90;;;;;;5087874;28;20243;-83
2022/08/06 02:05:12;;;;;;;871.70;787.60;;;19.90;99.90;;;;;;5086231;28;20197;-83
2022/08/06 02:07:42;;;;;;;885.45;800.78;;;19.90;99.90;;;;;;5087719;28;20205;-83
2022/08/06 02:10:12;;;;;;;889.80;805.22;;;19.90;99.90;;;;;;5087914;28;20324;-83
2022/08/06 02:12:42;;;;;;;886.50;801.80;;;19.90;99.90;;;;;;5082924;28;20190;-83
2022/08/06 02:15:15;;;;;;;872.38;788.08;;;19.90;99.90;;;;;;5086154;28;20189;-83
2022/08/06 02:17:46;;;;;;;883.95;799.08;;;19.90;99.90;;;;;;5085546;28;20198;-82
2022/08/06 02:20:16;;;;;;;879.38;795.05;;;19.80;99.90;;;;;;5087628;28;20210;-83
2022/08/06 02:22:46;;;;;;;881.83;797.33;;;19.80;99.90;;;;;;5097421;28;20190;-81
2022/08/06 02:25:15;;;;;;;868.67;784.70;;;19.80;99.90;;;;;;5096273;28;20205;-81
2022/08/06 02:27:47;;;;;;;878.47;793.90;;;19.80;99.90;;;;;;5094381;28;20205;-82
2022/08/06 02:30:14;;;;;;;865.17;781.30;;;19.80;99.90;;;;;;5097485;28;20213;-81
2022/08/06 02:32:42;;;;;;;865.35;781.53;;;19.80;99.90;;;;;;5104622;28;20196;-82
2022/08/06 02:35:10;;;;;;;866.53;782.63;;;19.70;99.90;;;;;;5102496;28;20189;-82
2022/08/06 02:37:41;;;;;;;882.10;797.58;;;19.70;99.90;;;;;;5102528;28;20754;-82
2022/08/06 02:40:12;;;;;;;881.88;797.38;;;19.70;99.90;;;;;;5099202;28;20208;-83
2022/08/06 02:42:43;;;;;;;879.90;795.47;;;19.70;99.90;;;;;;5098799;28;20197;-83
2022/08/06 02:45:18;;;;;;;857.90;774.08;;;19.70;99.90;;;;;;5102677;28;20265;-84
2022/08/06 02:47:51;;;;;;;859.50;775.67;;;19.70;99.90;;;;;;5103870;28;20203;-82
2022/08/06 02:50:22;;;;;;;862.78;778.90;;;19.70;99.90;;;;;;5099951;28;20220;-85
2022/08/06 02:52:54;;;;;;;867.30;783.30;;;19.60;99.90;;;;;;5099700;28;20216;-82
2022/08/06 02:55:25;;;;;;;859.97;776.13;;;19.60;99.90;;;;;;5101943;28;20205;-82
2022/08/06 02:57:55;;;;;;;862.97;779.00;;;19.60;99.90;;;;;;5102315;28;20193;-82
2022/08/06 03:00:24;;;;;;;856.85;773.17;;;19.60;99.90;;;;;;5094938;28;20707;-83
2022/08/06 03:02:56;;;;;;;869.40;785.22;;;19.50;99.90;;;;;;5096938;28;20663;-81
2022/08/06 03:05:24;;;;;;;867.03;783.03;;;19.50;99.90;;;;;;5102248;28;20205;-82
2022/08/06 03:07:53;;;;;;;862.47;778.60;;;19.50;99.90;;;;;;5101624;28;20193;-83
2022/08/06 03:10:25;;;;;;;863.95;779.85;;;19.50;99.90;;;;;;5098727;28;20747;-83
2022/08/06 03:12:53;;;;;;;870.45;786.35;;;19.50;99.90;;;;;;5096764;28;20190;-83
2022/08/06 03:15:23;;;;;;;858.83;775.03;;;19.50;99.90;;;;;;5095526;28;20215;-83
2022/08/06 03:17:56;;;;;;;856.00;772.10;;;19.50;99.90;;;;;;5101624;28;20255;-83
2022/08/06 03:20:23;;;;;;;874.38;790.05;;;19.40;99.90;;;;;;5097663;28;20733;-84
2022/08/06 03:22:52;;;;;;;855.17;771.28;;;19.40;99.90;;;;;;5101882;28;20890;-83
2022/08/06 03:25:20;;;;;;;857.08;773.00;;;19.40;99.90;;;;;;5101240;28;20548;-81
2022/08/06 03:27:48;;;;;;;852.78;769.17;;;19.40;99.90;;;;;;5101391;28;20204;-82
2022/08/06 03:30:17;;;;;;;879.67;795.10;;;19.40;99.90;;;;;;5095731;28;20234;-83
2022/08/06 03:32:44;;;;;;;853.47;769.63;;;19.40;99.90;;;;;;5093355;28;20196;-82
2022/08/06 03:35:13;;;;;;;847.33;763.78;;;19.40;99.90;;;;;;5100446;28;20655;-82
2022/08/06 03:37:41;;;;;;;848.28;764.58;;;19.30;99.90;;;;;;5096920;28;20651;-82
2022/08/06 03:40:11;;;;;;;855.28;771.50;;;19.30;99.90;;;;;;5097402;28;20201;-82
2022/08/06 03:42:39;;;;;;;852.40;768.70;;;19.30;99.90;;;;;;5080252;28;20210;-81
2022/08/06 03:45:07;;;;;;;858.53;774.47;;;19.30;99.90;;;;;;5104926;28;20224;-82
2022/08/06 03:47:40;;;;;;;855.92;772.03;;;19.20;99.90;;;;;;5101994;28;20849;-82
2022/08/06 03:50:11;;;;;;;855.45;771.58;;;19.20;99.90;;;;;;5101549;28;20205;-81
2022/08/06 03:52:42;;;;;;;848.33;764.53;;;19.20;99.90;;;;;;5094516;28;20194;-83
2022/08/06 03:55:14;;;;;;;852.85;768.88;;;19.20;99.90;;;;;;5095974;28;20197;-82
2022/08/06 03:57:44;;;;;;;846.03;762.33;;;19.20;99.90;;;;;;5097922;28;20548;-83
2022/08/06 04:00:14;;;;;;;846.50;762.83;;;19.20;99.90;;;;;;5101875;28;20214;-85
2022/08/06 04:02:45;;;;;;;853.38;769.50;;;19.20;99.90;;;;;;5102272;28;20644;-83
2022/08/06 04:05:14;;;;;;;852.88;769.17;;;19.20;99.90;;;;;;5088499;28;20285;-86
2022/08/06 04:07:42;;;;;;;851.60;767.80;;;19.10;99.90;;;;;;5087661;28;20291;-86
2022/08/06 04:10:10;;;;;;;851.90;768.00;;;19.10;99.90;;;;;;5090822;28;20224;-84
2022/08/06 04:12:37;;;;;;;839.10;755.42;;;19.10;99.90;;;;;;5093845;28;20204;-85
2022/08/06 04:15:07;;;;;;;855.08;771.17;;;19.10;99.90;;;;;;5089820;28;20193;-86
2022/08/06 04:17:36;;;;;;;839.80;756.10;;;19.10;99.90;;;;;;5086167;28;20192;-85
2022/08/06 04:20:03;;;;;;;849.08;765.28;;;19.10;99.90;;;;;;5091238;28;20800;-85
2022/08/06 04:22:30;;;;;;;850.85;766.95;;;19.10;99.90;;;;;;5089754;28;20215;-86
2022/08/06 04:24:58;;;;;;;859.85;775.65;;;19.10;99.90;;;;;;5089027;28;20209;-85
2022/08/06 04:27:27;;;;;;;831.13;747.80;;;19.00;99.90;;;;;;5087370;28;20208;-84
2022/08/06 04:29:56;;;;;;;858.13;773.67;;;19.00;99.90;;;;;;5080617;28;20226;-86
2022/08/06 04:32:24;;;;;;;841.03;757.40;;;19.00;99.90;;;;;;5089759;28;20201;-85
2022/08/06 04:34:53;;;;;;;834.83;751.35;;;19.00;99.90;;;;;;5086361;28;20215;-86
2022/08/06 04:37:20;;;;;;;842.10;758.22;;;19.00;99.90;;;;;;5091499;28;20200;-85
2022/08/06 04:39:47;;;;;;;858.90;774.55;;;19.00;99.90;;;;;;5088864;28;20209;-85
2022/08/06 04:42:16;;;;;;;832.53;748.85;;;19.00;99.90;;;;;;5088566;28;20576;-85
2022/08/06 04:44:44;;;;;;;849.17;765.38;;;18.90;99.90;;;;;;5088178;28;20200;-86
2022/08/06 04:47:11;;;;;;;842.72;758.95;;;18.90;99.90;;;;;;5083478;28;20619;-86
2022/08/06 04:49:38;;;;;;;829.88;746.58;;;18.90;99.90;;;;;;5087307;28;20219;-87
2022/08/06 04:52:05;;;;;;;823.70;740.42;;;18.90;99.90;;;;;;5090965;28;20192;-87
2022/08/06 04:54:32;;;;;;;837.05;753.58;;;18.90;99.90;;;;;;5091459;28;20203;-86
2022/08/06 04:56:59;;;;;;;841.10;757.20;;;18.90;99.90;;;;;;5082992;28;20198;-86
2022/08/06 04:59:27;;;;;;;826.80;743.60;;;18.90;99.90;;;;;;5082902;28;20201;-85
2022/08/06 05:01:54;;;;;;;825.88;742.65;;;18.90;99.90;;;;;;5088474;28;20196;-86
2022/08/06 05:04:20;;;;;;;831.92;748.35;;;18.90;99.90;;;;;;5089459;28;20201;-86
2022/08/06 05:06:53;;;;;;;838.88;755.33;;;18.90;99.90;;;;;;5089527;28;20200;-86
2022/08/06 05:09:23;;;;;;;826.30;743.08;;;18.80;99.90;;;;;;5085750;28;20685;-86
2022/08/06 05:11:55;;;;;;;825.80;742.55;;;18.80;99.90;;;;;;5084808;28;20665;-85
2022/08/06 05:14:27;;;;;;;818.63;735.53;;;18.80;99.90;;;;;;5090461;28;20191;-85
2022/08/06 05:16:57;;;;;;;816.08;733.10;;;18.80;99.90;;;;;;5095278;28;20271;-85
2022/08/06 05:19:28;;;;;;;822.97;739.80;;;18.80;99.90;;;;;;5091600;28;20248;-85
2022/08/06 05:21:58;;;;;;;824.03;740.47;;;18.80;99.90;;;;;;5092458;28;20194;-85
2022/08/06 05:24:26;;;;;;;822.30;739.03;;;18.80;99.90;;;;;;5094755;28;20204;-85
2022/08/06 05:26:52;;;;;;;829.15;745.88;;;18.80;99.90;;;;;;5096885;28;20214;-84
2022/08/06 05:29:20;;;;;;;828.03;744.60;;;18.80;99.90;;;;;;5093994;28;20203;-85
2022/08/06 05:31:47;;;;;;;820.78;737.80;;;18.80;99.90;;;;;;5096144;28;20201;-86
2022/08/06 05:34:16;;;;;;;826.00;742.95;;;18.80;99.90;;;;;;5096095;28;20231;-85
2022/08/06 05:36:43;;;;;;;831.67;748.17;;;18.80;99.90;;;;;;5097903;28;20193;-84
2022/08/06 05:39:09;;;;;;;835.90;752.55;;;18.80;99.90;;;;;;5098000;28;20197;-84
2022/08/06 05:41:36;;;;;;;807.53;724.85;;;18.80;99.90;;;;;;5095353;28;20230;-84
2022/08/06 05:44:04;;;;;;;842.70;759.03;;;18.90;99.90;;;;;;5096046;28;20231;-84
2022/08/06 05:46:35;;;;;;;843.35;759.67;;;19.00;99.90;;;;;;5099482;28;20210;-85
2022/08/06 05:49:06;;;;;;;851.65;767.78;;;19.30;99.90;;;;;;5089790;28;20196;-85
2022/08/06 05:51:39;;;;;;;854.47;770.33;;;19.60;99.90;;;;;;5097356;28;20220;-85
2022/08/06 05:54:12;;;;;;;862.63;778.47;;;19.80;99.90;;;;;;5093529;28;20243;-86
2022/08/06 05:56:43;;;;;;;873.53;789.13;;;20.10;99.90;;;;;;5086567;28;20202;-83
2022/08/06 05:59:21;;;;;;;890.95;805.97;;;20.30;99.90;;;;;;5084244;28;20201;-84
2022/08/06 06:01:50;;;;;;;909.60;823.90;;;20.50;99.90;;;;;;5088688;28;20205;-83
2022/08/06 06:04:17;;;;;;;908.65;823.25;;;20.80;99.90;;;;;;5086707;28;20216;-82
2022/08/06 06:06:46;;;;;;;914.75;829.10;;;21.00;99.90;;;;;;5087611;28;20280;-82
2022/08/06 06:09:13;;;;;;;925.25;839.35;;;21.10;99.90;;;;;;5088422;28;20198;-83
2022/08/06 06:11:41;;;;;;;936.75;850.58;;;21.30;99.90;;;;;;5088667;28;20684;-82
2022/08/06 06:14:21;;;;;;;953.67;866.97;;;21.40;99.90;;;;;;5081866;28;20688;-83
2022/08/06 06:16:59;;;;;;;946.47;860.00;;;21.50;99.90;;;;;;5085801;28;20205;-82
2022/08/06 06:19:34;;;;;;;948.08;861.65;;;21.70;99.90;;;;;;5083929;28;20217;-82
2022/08/06 06:22:10;;;;;;;952.65;866.08;;;21.80;99.60;;;;;;5085959;28;20197;-81
2022/08/06 06:24:42;;;;;;;972.88;885.63;;;21.90;99.30;;;;;;5086052;28;20197;-81
2022/08/06 06:27:16;;;;;;;962.45;875.92;;;22.00;99.00;;;;;;5085493;28;20214;-81
2022/08/06 06:29:56;;;;;;;954.80;868.38;;;22.20;98.70;;;;;;5087331;28;20197;-82
2022/08/06 06:32:38;;;;;;;984.03;896.70;;;22.20;98.30;;;;;;5084285;28;20197;-81
2022/08/06 06:35:23;;;;;;;975.22;888.15;;;22.40;98.20;;;;;;5083502;28;20204;-82
2022/08/06 06:37:58;;;;;;;979.58;892.42;;;22.40;97.90;;;;;;5082555;28;20194;-82
2022/08/06 06:40:38;;;;;;;996.50;908.92;;;22.50;97.70;;;;;;5083769;28;20193;-82
2022/08/06 06:43:10;;;;;;;982.30;895.03;;;22.60;97.40;;;;;;5085885;28;20196;-82
2022/08/06 06:45:43;;;;;;;997.90;910.20;;;22.70;97.20;;;;;;5086196;28;20201;-82
2022/08/06 06:48:14;;;;;;;1005.88;917.80;;;22.80;97.00;;;;;;5083840;28;20190;-82
2022/08/06 06:50:45;;;;;;;1008.72;920.92;;;22.90;96.80;;;;;;5084395;28;20221;-81
2022/08/06 06:53:15;;;;;;;1002.20;914.60;;;22.90;96.60;;;;;;5086519;28;20652;-82
2022/08/06 06:55:45;;;;;;;1017.05;928.83;;;23.00;96.40;;;;;;5081796;28;20644;-82
2022/08/06 06:58:16;;;;;;;1006.10;918.03;;;23.00;96.20;;;;;;5082323;28;20238;-81
2022/08/06 07:00:43;;;;;;;1024.43;936.10;;;23.10;96.10;;;;;;5085949;28;20208;-82
2022/08/06 07:03:11;;;;;;;992.58;905.42;;;23.10;96.00;;;;;;5084156;28;20205;-82
2022/08/06 07:05:43;;;;;;;995.50;908.05;;;23.20;95.90;;;;;;5084609;28;20200;-81
2022/08/06 07:08:12;;;;;;;1017.65;929.13;;;23.20;95.70;;;;;;5089276;28;20225;-81
2022/08/06 07:10:41;;;;;;;1003.03;915.42;;;23.30;95.60;;;;;;5084548;28;20226;-83
2022/08/06 07:13:10;;;;;;;1012.42;924.38;;;23.40;95.40;;;;;;5089022;28;20200;-82
2022/08/06 07:15:38;;;;;;;1025.00;936.28;;;23.40;95.20;;;;;;5086385;28;20208;-82
2022/08/06 07:18:06;;;;;;;1031.45;942.67;;;23.50;95.10;;;;;;5086473;28;20198;-83
2022/08/06 07:20:34;;;;;;;1026.65;937.83;;;23.60;95.00;;;;;;5088537;28;20198;-81
2022/08/06 07:23:06;;;;;;;1042.53;953.58;;;23.70;94.70;;;;;;5083557;28;20711;-83
2022/08/06 07:25:37;;;;;;;1031.18;942.35;;;23.70;94.60;;;;;;5087658;28;20209;-83
2022/08/06 07:28:06;;;;;;;1043.20;954.17;;;23.80;94.40;;;;;;5083275;28;20210;-80
2022/08/06 07:30:33;;;;;;;1049.00;959.50;;;23.80;94.30;;;;;;5086234;28;20209;-80
2022/08/06 07:33:00;;;;;;;1024.72;936.25;;;23.80;94.20;;;;;;5089184;28;20632;-82
2022/08/06 07:35:27;;;;;;;1035.28;946.33;;;23.90;94.10;;;;;;5086348;28;20221;-82
2022/08/06 07:37:56;;;;;;;1038.47;949.42;;;23.90;94.00;;;;;;5087453;28;20193;-81
2022/08/06 07:40:26;;;;;;;1047.45;958.25;;;24.00;93.90;;;;;;5085616;28;20372;-80
2022/08/06 07:42:59;;;;;;;1044.25;954.78;;;24.00;93.50;;;;;;5082321;28;20198;-80
2022/08/06 07:45:32;;;;;;;1053.97;964.53;;;24.10;93.50;;;;;;5088792;28;20283;-80
2022/08/06 07:48:01;;;;;;;1054.13;964.63;;;24.20;93.30;;;;;;5084162;28;20197;-80
2022/08/06 07:50:28;;;;;;;1051.57;961.97;;;24.30;93.00;;;;;;5090649;28;20974;-80
2022/08/06 07:52:56;;;;;;;1057.00;967.20;;;24.30;92.90;;;;;;5083623;28;20190;-80
2022/08/06 07:55:25;;;;;;;1041.97;952.90;;;24.30;92.90;;;;;;5087833;28;20950;-80
2022/08/06 07:57:52;;;;;;;1053.07;963.67;;;24.30;92.60;;;;;;5091979;28;20798;-79
2022/08/06 08:00:19;;;;;;;1070.55;980.13;;;24.40;92.30;;;;;;5090197;28;20448;-80
2022/08/06 08:08:13;;;;;;;1073.27;982.93;;;24.50;91.50;;;;;;5090023;28;20494;-78
2022/08/06 08:10:41;;;;;;;1055.97;966.20;;;24.50;91.80;;;;;;5086281;28;21016;-78
2022/08/06 08:13:08;;;;;;;1079.93;989.37;;;24.60;91.70;;;;;;5091025;28;20466;-78
2022/08/06 08:15:35;;;;;;;1069.00;978.93;;;24.60;91.60;;;;;;5090000;28;20455;-79
2022/08/06 08:18:05;;;;;;;1072.93;982.83;;;24.70;91.60;;;;;;5086630;28;21368;-79
2022/08/06 08:20:33;;;;;;;1057.10;967.50;;;24.70;91.60;;;;;;5081759;28;20478;-81
2022/08/06 08:23:03;;;;;;;1080.83;990.23;;;24.80;91.40;;;;;;5088225;28;20463;-79
2022/08/06 08:25:30;;;;;;;1077.10;986.73;;;24.80;91.00;;;;;;5087252;28;20467;-80
2022/08/06 08:27:57;;;;;;;1080.00;989.60;;;24.90;90.80;;;;;;5091250;28;20475;-81
2022/08/06 08:30:24;;;;;;;1069.00;979.03;;;24.90;90.60;;;;;;5090179;28;20466;-79
2022/08/06 08:32:51;;;;;;;1062.07;972.27;;;24.90;90.70;;;;;;5090991;28;20470;-79
2022/08/06 08:35:19;;;;;;;1069.67;979.47;;;24.90;90.70;;;;;;5079101;28;20463;-80
2022/08/06 08:37:46;;;;;;;1072.10;981.80;;;24.90;90.70;;;;;;5089931;28;20455;-80
2022/08/06 08:40:13;;;;;;;1068.50;978.50;;;24.90;90.60;;;;;;5089873;28;20462;-80
2022/08/06 08:42:43;;;;;;;1058.67;969.00;;;24.90;90.20;;;;;;5085941;28;20470;-80
2022/08/06 08:45:11;;;;;;;1070.10;980.10;;;25.00;90.40;;;;;;5082999;28;20774;-80
2022/08/06 08:47:43;;;;;;;1085.97;994.73;;;25.00;90.10;;;;;;5091107;28;20938;-80
2022/08/06 08:50:11;;;;;;;1069.77;979.57;;;25.00;90.30;;;;;;5085389;28;20818;-78
2022/08/06 08:52:44;;;;;;;1085.83;994.67;;;25.00;90.40;;;;;;5081897;28;20479;-80
2022/08/06 08:55:14;;;;;;;1075.13;984.83;;;25.10;90.40;;;;;;5085759;28;20799;-80
2022/08/06 08:57:42;;;;;;;1089.73;996.90;;;25.10;90.20;;;;;;5088375;28;20461;-81
2022/08/06 09:00:10;;;;;;;1083.50;992.73;;;25.10;90.20;;;;;;5082366;28;20800;-80
2022/08/06 09:02:38;;;;;;;1085.43;994.23;;;25.10;89.80;;;;;;5089641;28;20455;-80
2022/08/06 09:05:06;;;;;;;1084.87;993.57;;;25.10;89.40;;;;;;5088005;28;20447;-80
2022/08/06 09:07:34;;;;;;;1088.03;995.93;;;25.10;89.40;;;;;;5090834;28;20838;-80
2022/08/06 09:10:03;;;;;;;1084.53;993.93;;;25.00;89.20;;;;;;5088513;28;20462;-81
2022/08/06 09:12:31;;;;;;;1069.63;979.47;;;25.00;90.20;;;;;;5089609;28;20483;-80
2022/08/06 09:14:57;;;;;;;1086.40;995.03;;;24.80;90.20;;;;;;5089235;28;20431;-80
2022/08/06 09:17:25;;;;;;;1087.50;995.80;;;24.80;89.80;;;;;;5086325;28;20972;-80
2022/08/06 09:19:52;;;;;;;1082.93;992.37;;;24.80;90.30;;;;;;5086015;28;20510;-79
2022/08/06 09:22:19;;;;;;;1063.00;973.13;;;24.70;89.60;;;;;;5084979;28;20725;-80
2022/08/06 09:24:46;;;;;;;1072.63;982.43;;;24.80;90.00;;;;;;5091147;28;20938;-80
2022/08/06 09:27:15;;;;;;;1081.97;991.53;;;24.70;90.50;;;;;;5082833;28;20463;-79
2022/08/06 09:29:50;;;;;;;1054.10;964.77;;;24.70;90.60;;;;;;5092088;28;20467;-81
2022/08/06 09:32:39;;;;;;;1071.57;981.50;;;24.70;90.50;;;;;;5091557;28;20467;-80
2022/08/06 09:35:19;;;;;;;1065.40;975.50;;;24.70;90.30;;;;;;5077725;28;20463;-81
2022/08/06 09:37:46;;;;;;;1074.97;984.77;;;24.80;89.70;;;;;;5088554;28;20447;-79
2022/08/06 09:40:15;;;;;;;1079.57;988.97;;;24.80;89.00;;;;;;5090011;28;20452;-78
2022/08/06 09:42:46;;;;;;;1075.37;985.07;;;24.70;88.90;;;;;;5087096;28;20462;-80
2022/08/06 09:45:14;;;;;;;1079.37;988.87;;;24.70;90.20;;;;;;5081576;28;20453;-79
2022/08/06 09:47:41;;;;;;;1073.83;983.63;;;24.60;89.80;;;;;;5088430;28;20471;-81
2022/08/06 09:50:10;;;;;;;1063.60;973.63;;;24.60;90.20;;;;;;5088333;28;20541;-81
2022/08/06 09:52:36;;;;;;;1072.63;982.63;;;24.60;90.40;;;;;;5084685;28;20226;-80
2022/08/06 09:55:04;;;;;;;1070.03;979.83;;;24.60;90.50;;;;;;5088800;28;20456;-79
2022/08/06 09:57:44;;;;;;;1055.13;965.77;;;24.50;90.00;;;;;;5080029;28;20793;-81
2022/08/06 10:00:12;;;;;;;1070.00;979.80;;;24.50;90.10;;;;;;5083026;28;20451;-80
2022/08/06 10:02:39;;;;;;;1062.70;972.97;;;24.50;89.40;;;;;;5091082;28;20926;-80
2022/08/06 10:05:10;;;;;;;1066.90;976.70;;;24.50;90.10;;;;;;5087740;28;20201;-80
2022/08/06 10:07:37;;;;;;;1059.20;969.40;;;24.40;90.40;;;;;;5081582;28;20463;-80
2022/08/06 10:10:05;;;;;;;1065.88;976.03;;;24.30;90.50;;;;;;5088924;28;20464;-81
2022/08/06 10:12:32;;;;;;;1041.35;952.15;;;24.30;90.40;;;;;;5085128;28;20683;-80
2022/08/06 10:15:00;;;;;;;1052.07;962.50;;;24.30;90.60;;;;;;5083233;28;20563;-79
2022/08/06 10:17:28;;;;;;;1057.13;967.58;;;24.30;90.80;;;;;;5080141;28;20198;-80
2022/08/06 10:20:10;;;;;;;1061.87;972.00;;;24.30;90.30;;;;;;5086732;28;20257;-81
2022/08/06 10:22:49;;;;;;;1055.20;965.60;;;24.30;90.30;;;;;;5085581;28;21062;-79
2022/08/06 10:25:16;;;;;;;1042.20;953.30;;;24.40;90.50;;;;;;5085533;28;20445;-80
2022/08/06 10:27:44;;;;;;;1065.65;975.88;;;24.30;90.50;;;;;;5082837;28;20463;-80
2022/08/06 10:30:13;;;;;;;1059.33;969.63;;;24.30;90.60;;;;;;5088874;28;20196;-80
2022/08/06 10:32:47;;;;;;;1059.72;970.03;;;24.30;90.90;;;;;;5086588;28;20487;-80
2022/08/06 10:35:17;;;;;;;1047.00;957.93;;;24.40;90.60;;;;;;5079050;28;20202;-80
2022/08/06 10:37:47;;;;;;;1056.32;966.80;;;24.40;90.40;;;;;;5086711;28;20444;-80
2022/08/06 10:40:15;;;;;;;1050.72;961.40;;;24.30;90.00;;;;;;5078403;28;20647;-80
2022/08/06 10:42:43;;;;;;;1056.20;966.55;;;24.30;90.50;;;;;;5084263;28;20607;-80
2022/08/06 10:45:13;;;;;;;1060.28;970.72;;;24.30;90.60;;;;;;5089181;28;20684;-81
2022/08/06 10:47:40;;;;;;;1056.30;966.77;;;24.20;90.20;;;;;;5087772;28;20236;-80
2022/08/06 10:50:09;;;;;;;1059.43;969.67;;;24.20;90.50;;;;;;5083681;28;20554;-80
2022/08/06 10:52:37;;;;;;;1055.97;966.47;;;24.20;90.60;;;;;;5085832;28;20488;-81
2022/08/06 10:55:05;;;;;;;1055.40;965.80;;;24.10;90.80;;;;;;5086734;28;20197;-80
2022/08/06 10:57:33;;;;;;;1044.00;954.90;;;24.10;90.90;;;;;;5086472;28;20204;-80
2022/08/06 11:00:01;;;;;;;1054.45;965.00;;;24.10;90.40;;;;;;5087375;28;20447;-79
2022/08/06 11:02:38;;;;;;;1052.30;962.85;;;24.10;90.30;;;;;;5087573;28;20564;-79
2022/08/06 11:05:13;;;;;;;1058.85;969.17;;;24.10;90.70;;;;;;5087641;28;20193;-80
2022/08/06 11:07:56;;;;;;;1049.82;960.17;;;24.00;90.80;;;;;;5087165;28;20685;-80
2022/08/06 11:11:04;;;;;;;1040.57;951.63;;;24.10;90.70;;;;;;5088736;28;20212;-80
2022/08/06 11:13:34;;;;;;;1037.93;949.03;;;24.00;90.70;;;;;;5062429;28;20200;-80
2022/08/06 11:16:02;;;;;;;1037.88;948.92;;;24.00;90.90;;;;;;5087278;28;20197;-79
2022/08/06 11:18:30;;;;;;;1049.30;960.00;;;24.00;90.70;;;;;;5089642;28;20221;-80
2022/08/06 11:20:59;;;;;;;1029.70;941.15;;;24.00;90.70;;;;;;5090012;28;20201;-80
2022/08/06 11:23:31;;;;;;;1055.65;966.08;;;24.00;90.80;;;;;;5073342;28;20194;-80
2022/08/06 11:26:00;;;;;;;1031.88;943.20;;;24.00;90.80;;;;;;5085710;28;20202;-80
2022/08/06 11:28:58;;;;;;;1036.63;948.03;;;23.90;90.80;;;;;;5082768;28;21511;-80
2022/08/06 11:31:39;;;;;;;1041.03;952.05;;;23.90;91.20;;;;;;5084944;28;20217;-80
2022/08/06 11:34:13;;;;;;;1028.25;939.75;;;23.90;90.90;;;;;;5081815;28;20254;-80
2022/08/06 11:36:52;;;;;;;1029.07;940.35;;;23.90;91.00;;;;;;5091261;28;20264;-80
2022/08/06 11:39:21;;;;;;;1036.07;947.03;;;23.90;90.90;;;;;;5090769;28;20190;-80
2022/08/06 11:41:54;;;;;;;1032.50;944.03;;;23.90;91.10;;;;;;5089660;28;20197;-80
2022/08/06 11:44:22;;;;;;;1036.18;947.38;;;23.80;90.90;;;;;;5083582;28;20194;-81
2022/08/06 11:46:50;;;;;;;1034.20;945.38;;;23.80;91.00;;;;;;5086035;28;20204;-80
2022/08/06 11:49:21;;;;;;;1025.35;936.97;;;23.80;90.90;;;;;;5087046;28;20197;-81
2022/08/06 11:51:54;;;;;;;1035.88;947.00;;;23.80;91.00;;;;;;5088821;28;20218;-81
2022/08/06 11:54:23;;;;;;;1040.75;951.72;;;23.80;91.20;;;;;;5090444;28;20714;-81
2022/08/06 11:57:21;;;;;;;1042.97;953.90;;;23.80;91.20;;;;;;5084192;28;20209;-80
2022/08/06 12:00:04;;;;;;;1031.00;942.25;;;23.80;87.50;;;;;;5088530;28;20193;-81
2022/08/06 12:02:53;;;;;;;1023.47;935.15;;;23.80;67.00;;;;;;5090284;28;20657;-79
2022/08/06 12:05:47;;;;;;;1034.68;945.97;;;23.70;73.10;;;;;;5086813;28;20243;-79
2022/08/06 12:08:25;;;;;;;1013.65;925.65;;;23.60;77.90;;;;;;5086684;28;20201;-79
2022/08/06 12:11:24;;;;;;;1028.20;939.53;;;23.60;78.80;;;;;;5089333;28;20198;-79
2022/08/06 12:13:52;;;;;;;1029.93;941.25;;;23.60;79.60;;;;;;5086337;28;20201;-80
2022/08/06 12:16:34;;;;;;;1035.82;947.13;;;23.60;80.40;;;;;;5089537;28;20537;-79
2022/08/06 12:19:02;;;;;;;1026.93;938.58;;;23.60;80.10;;;;;;5085522;28;20711;-79
2022/08/06 12:21:31;;;;;;;1028.28;939.85;;;23.60;81.10;;;;;;5087191;28;20717;-80
2022/08/06 12:23:58;;;;;;;1032.07;943.40;;;23.60;81.50;;;;;;5087220;28;20198;-79